sensor_id;sensor_type;location;lat;lon;timestamp;temperature;humidity
37380;DHT22;23252;-33.992;18.480;2023-08-12T00:02:16;16.30;99.90
37380;DHT22;23252;-33.992;18.480;2023-08-12T00:04:43;16.30;99.90
37380;DHT22;23252;-33.992;18.480;2023-08-12T00:07:11;16.20;99.90
37380;DHT22;23252;-33.992;18.480;2023-08-12T00:09:38;16.20;99.90
37380;DHT22;23252;-33.992;18.480;2023-08-12T00:12:05;16.20;99.90
37380;DHT22;23252;-33.992;18.480;2023-08-12T00:14:31;16.20;99.90
37380;DHT22;23252;-33.992;18.480;2023-08-12T00:16:58;16.20;99.90
37380;DHT22;23252;-33.992;18.480;2023-08-12T00:19:25;16.20;99.90
37380;DHT22;23252;-33.992;18.480;2023-08-12T00:21:51;16.20;99.90
37380;DHT22;23252;-33.992;18.480;2023-08-12T00:24:18;16.20;99.90
37380;DHT22;23252;-33.992;18.480;2023-08-12T00:26:45;16.20;99.90
37380;DHT22;23252;-33.992;18.480;2023-08-12T00:29:12;16.20;99.90
37380;DHT22;23252;-33.992;18.480;2023-08-12T00:31:38;16.20;99.90
37380;DHT22;23252;-33.992;18.480;2023-08-12T00:34:05;16.10;99.90
37380;DHT22;23252;-33.992;18.480;2023-08-12T00:36:32;16.10;99.90
37380;DHT22;23252;-33.992;18.480;2023-08-12T00:38:58;16.10;99.90
37380;DHT22;23252;-33.992;18.480;2023-08-12T00:41:25;16.10;99.90
37380;DHT22;23252;-33.992;18.480;2023-08-12T00:43:52;16.10;99.90
37380;DHT22;23252;-33.992;18.480;2023-08-12T00:46:18;16.10;99.90
37380;DHT22;23252;-33.992;18.480;2023-08-12T00:48:45;16.10;99.90
37380;DHT22;23252;-33.992;18.480;2023-08-12T00:51:12;16.20;99.90
37380;DHT22;23252;-33.992;18.480;2023-08-12T00:53:39;16.10;99.90
37380;DHT22;23252;-33.992;18.480;2023-08-12T00:56:05;16.20;99.90
37380;DHT22;23252;-33.992;18.480;2023-08-12T00:58:32;16.20;99.90
37380;DHT22;23252;-33.992;18.480;2023-08-12T01:00:59;16.10;99.90
37380;DHT22;23252;-33.992;18.480;2023-08-12T01:03:26;16.10;99.90
37380;DHT22;23252;-33.992;18.480;2023-08-12T01:05:53;16.10;99.90
37380;DHT22;23252;-33.992;18.480;2023-08-12T01:08:19;16.10;99.90
37380;DHT22;23252;-33.992;18.480;2023-08-12T01:10:52;16.00;99.90
37380;DHT22;23252;-33.992;18.480;2023-08-12T01:13:29;16.10;99.90
37380;DHT22;23252;-33.992;18.480;2023-08-12T01:16:01;16.00;99.90
37380;DHT22;23252;-33.992;18.480;2023-08-12T01:18:30;16.00;99.90
37380;DHT22;23252;-33.992;18.480;2023-08-12T01:20:58;15.90;99.90
37380;DHT22;23252;-33.992;18.480;2023-08-12T01:23:26;15.90;99.90
37380;DHT22;23252;-33.992;18.480;2023-08-12T01:25:53;15.90;99.90
37380;DHT22;23252;-33.992;18.480;2023-08-12T01:28:19;15.90;99.90
37380;DHT22;23252;-33.992;18.480;2023-08-12T01:31:15;15.90;99.90
37380;DHT22;23252;-33.992;18.480;2023-08-12T01:33:44;15.80;99.90
37380;DHT22;23252;-33.992;18.480;2023-08-12T01:36:19;15.80;99.90
37380;DHT22;23252;-33.992;18.480;2023-08-12T01:38:47;15.80;99.90
37380;DHT22;23252;-33.992;18.480;2023-08-12T01:41:18;15.80;99.90
37380;DHT22;23252;-33.992;18.480;2023-08-12T01:43:47;15.80;99.90
37380;DHT22;23252;-33.992;18.480;2023-08-12T01:46:13;15.80;99.90
37380;DHT22;23252;-33.992;18.480;2023-08-12T01:48:40;15.80;99.90
37380;DHT22;23252;-33.992;18.480;2023-08-12T01:51:07;15.80;99.90
37380;DHT22;23252;-33.992;18.480;2023-08-12T01:53:34;15.80;99.90
37380;DHT22;23252;-33.992;18.480;2023-08-12T01:56:00;15.80;99.90
37380;DHT22;23252;-33.992;18.480;2023-08-12T01:58:27;15.80;99.90
37380;DHT22;23252;-33.992;18.480;2023-08-12T02:00:54;15.80;99.90
37380;DHT22;23252;-33.992;18.480;2023-08-12T02:03:21;15.70;99.90
37380;DHT22;23252;-33.992;18.480;2023-08-12T02:05:47;15.80;99.90
37380;DHT22;23252;-33.992;18.480;2023-08-12T02:08:14;15.80;99.90
37380;DHT22;23252;-33.992;18.480;2023-08-12T02:10:41;15.80;99.90
37380;DHT22;23252;-33.992;18.480;2023-08-12T02:13:07;15.80;99.90
37380;DHT22;23252;-33.992;18.480;2023-08-12T02:15:34;15.70;99.90
37380;DHT22;23252;-33.992;18.480;2023-08-12T02:18:01;15.70;99.90
37380;DHT22;23252;-33.992;18.480;2023-08-12T02:20:27;15.70;99.90
37380;DHT22;23252;-33.992;18.480;2023-08-12T02:22:54;15.70;99.90
37380;DHT22;23252;-33.992;18.480;2023-08-12T02:25:21;15.70;99.90
37380;DHT22;23252;-33.992;18.480;2023-08-12T02:27:47;15.80;99.90
37380;DHT22;23252;-33.992;18.480;2023-08-12T02:30:14;15.80;99.90
37380;DHT22;23252;-33.992;18.480;2023-08-12T02:32:41;15.80;99.90
37380;DHT22;23252;-33.992;18.480;2023-08-12T02:35:09;15.70;99.90
37380;DHT22;23252;-33.992;18.480;2023-08-12T02:37:36;15.70;99.90
37380;DHT22;23252;-33.992;18.480;2023-08-12T02:40:04;15.70;99.90
37380;DHT22;23252;-33.992;18.480;2023-08-12T02:42:31;15.70;99.90
37380;DHT22;23252;-33.992;18.480;2023-08-12T02:44:58;15.70;99.90
37380;DHT22;23252;-33.992;18.480;2023-08-12T02:47:26;15.70;99.90
37380;DHT22;23252;-33.992;18.480;2023-08-12T02:49:53;15.70;99.90
37380;DHT22;23252;-33.992;18.480;2023-08-12T02:52:20;15.70;99.90
37380;DHT22;23252;-33.992;18.480;2023-08-12T02:54:46;15.60;99.90
37380;DHT22;23252;-33.992;18.480;2023-08-12T02:57:13;15.60;99.90
37380;DHT22;23252;-33.992;18.480;2023-08-12T02:59:40;15.60;99.90
37380;DHT22;23252;-33.992;18.480;2023-08-12T03:02:06;15.60;99.90
37380;DHT22;23252;-33.992;18.480;2023-08-12T03:04:33;15.50;99.90
37380;DHT22;23252;-33.992;18.480;2023-08-12T03:07:00;15.50;99.90
37380;DHT22;23252;-33.992;18.480;2023-08-12T03:09:26;15.50;99.90
37380;DHT22;23252;-33.992;18.480;2023-08-12T03:11:53;15.50;99.90
37380;DHT22;23252;-33.992;18.480;2023-08-12T03:14:20;15.60;99.90
37380;DHT22;23252;-33.992;18.480;2023-08-12T03:16:46;15.50;99.90
37380;DHT22;23252;-33.992;18.480;2023-08-12T03:19:13;15.50;99.90
37380;DHT22;23252;-33.992;18.480;2023-08-12T03:21:40;15.50;99.90
37380;DHT22;23252;-33.992;18.480;2023-08-12T03:24:06;15.50;99.90
37380;DHT22;23252;-33.992;18.480;2023-08-12T03:26:33;15.50;99.90
37380;DHT22;23252;-33.992;18.480;2023-08-12T03:29:00;15.50;99.90
37380;DHT22;23252;-33.992;18.480;2023-08-12T03:31:26;15.50;99.90
37380;DHT22;23252;-33.992;18.480;2023-08-12T03:33:53;15.50;99.90
37380;DHT22;23252;-33.992;18.480;2023-08-12T03:36:19;15.50;99.90
37380;DHT22;23252;-33.992;18.480;2023-08-12T03:38:46;15.60;99.90
37380;DHT22;23252;-33.992;18.480;2023-08-12T03:41:13;15.60;99.90
37380;DHT22;23252;-33.992;18.480;2023-08-12T03:43:40;15.50;99.90
37380;DHT22;23252;-33.992;18.480;2023-08-12T03:46:06;15.60;99.90
37380;DHT22;23252;-33.992;18.480;2023-08-12T03:48:33;15.60;99.90
37380;DHT22;23252;-33.992;18.480;2023-08-12T03:51:00;15.60;99.90
37380;DHT22;23252;-33.992;18.480;2023-08-12T03:53:26;15.50;99.90
37380;DHT22;23252;-33.992;18.480;2023-08-12T03:55:53;15.50;99.90
37380;DHT22;23252;-33.992;18.480;2023-08-12T03:58:20;15.50;99.90
37380;DHT22;23252;-33.992;18.480;2023-08-12T04:00:46;15.50;99.90
37380;DHT22;23252;-33.992;18.480;2023-08-12T04:03:13;15.50;99.90
37380;DHT22;23252;-33.992;18.480;2023-08-12T04:05:48;15.50;99.90
37380;DHT22;23252;-33.992;18.480;2023-08-12T04:08:15;15.50;99.90
37380;DHT22;23252;-33.992;18.480;2023-08-12T04:10:45;15.60;99.90
37380;DHT22;23252;-33.992;18.480;2023-08-12T04:13:12;15.60;99.90
37380;DHT22;23252;-33.992;18.480;2023-08-12T04:15:38;15.60;99.90
37380;DHT22;23252;-33.992;18.480;2023-08-12T04:18:05;15.50;99.90
37380;DHT22;23252;-33.992;18.480;2023-08-12T04:20:32;15.50;99.90
37380;DHT22;23252;-33.992;18.480;2023-08-12T04:22:59;15.50;99.90
37380;DHT22;23252;-33.992;18.480;2023-08-12T04:25:25;15.60;99.90
37380;DHT22;23252;-33.992;18.480;2023-08-12T04:27:52;15.60;99.90
37380;DHT22;23252;-33.992;18.480;2023-08-12T04:30:19;15.60;99.90
37380;DHT22;23252;-33.992;18.480;2023-08-12T04:32:46;15.70;99.90
37380;DHT22;23252;-33.992;18.480;2023-08-12T04:35:12;15.70;99.90
37380;DHT22;23252;-33.992;18.480;2023-08-12T04:37:39;15.70;99.90
37380;DHT22;23252;-33.992;18.480;2023-08-12T04:40:07;15.70;99.90
37380;DHT22;23252;-33.992;18.480;2023-08-12T04:42:34;15.60;99.90
37380;DHT22;23252;-33.992;18.480;2023-08-12T04:45:00;15.60;99.90
37380;DHT22;23252;-33.992;18.480;2023-08-12T04:47:27;15.60;99.90
37380;DHT22;23252;-33.992;18.480;2023-08-12T04:49:54;15.60;99.90
37380;DHT22;23252;-33.992;18.480;2023-08-12T04:52:21;15.60;99.90
37380;DHT22;23252;-33.992;18.480;2023-08-12T04:54:47;15.70;99.90
37380;DHT22;23252;-33.992;18.480;2023-08-12T04:57:14;15.70;99.90
37380;DHT22;23252;-33.992;18.480;2023-08-12T04:59:41;15.70;99.90
37380;DHT22;23252;-33.992;18.480;2023-08-12T05:02:07;15.70;99.90
37380;DHT22;23252;-33.992;18.480;2023-08-12T05:04:34;15.70;99.90
37380;DHT22;23252;-33.992;18.480;2023-08-12T05:07:01;15.60;99.90
37380;DHT22;23252;-33.992;18.480;2023-08-12T05:09:27;15.50;99.90
37380;DHT22;23252;-33.992;18.480;2023-08-12T05:11:54;15.40;99.90
37380;DHT22;23252;-33.992;18.480;2023-08-12T05:14:20;15.30;99.90
37380;DHT22;23252;-33.992;18.480;2023-08-12T05:16:47;15.20;99.90
37380;DHT22;23252;-33.992;18.480;2023-08-12T05:19:14;15.10;99.90
37380;DHT22;23252;-33.992;18.480;2023-08-12T05:21:41;15.10;99.90
37380;DHT22;23252;-33.992;18.480;2023-08-12T05:24:11;15.20;99.90
37380;DHT22;23252;-33.992;18.480;2023-08-12T05:26:37;15.20;99.90
37380;DHT22;23252;-33.992;18.480;2023-08-12T05:29:04;15.40;99.90
37380;DHT22;23252;-33.992;18.480;2023-08-12T05:31:31;15.40;99.90
37380;DHT22;23252;-33.992;18.480;2023-08-12T05:33:57;15.40;99.90
37380;DHT22;23252;-33.992;18.480;2023-08-12T05:36:24;15.40;99.90
37380;DHT22;23252;-33.992;18.480;2023-08-12T05:38:50;15.50;99.90
37380;DHT22;23252;-33.992;18.480;2023-08-12T05:41:17;15.60;99.90
37380;DHT22;23252;-33.992;18.480;2023-08-12T05:43:44;15.50;99.90
37380;DHT22;23252;-33.992;18.480;2023-08-12T05:46:10;15.60;99.90
37380;DHT22;23252;-33.992;18.480;2023-08-12T05:48:37;15.60;99.90
37380;DHT22;23252;-33.992;18.480;2023-08-12T05:51:04;15.60;99.90
37380;DHT22;23252;-33.992;18.480;2023-08-12T05:53:30;15.60;99.90
37380;DHT22;23252;-33.992;18.480;2023-08-12T05:55:58;15.60;99.90
37380;DHT22;23252;-33.992;18.480;2023-08-12T05:58:24;15.60;99.90
37380;DHT22;23252;-33.992;18.480;2023-08-12T06:00:51;15.60;99.90
37380;DHT22;23252;-33.992;18.480;2023-08-12T06:03:18;15.60;99.90
37380;DHT22;23252;-33.992;18.480;2023-08-12T06:05:48;15.60;99.90
37380;DHT22;23252;-33.992;18.480;2023-08-12T06:08:18;15.60;99.90
37380;DHT22;23252;-33.992;18.480;2023-08-12T06:10:47;15.60;99.90
37380;DHT22;23252;-33.992;18.480;2023-08-12T08:14:21;16.40;99.90
37380;DHT22;23252;-33.992;18.480;2023-08-12T08:16:48;17.00;99.90
37380;DHT22;23252;-33.992;18.480;2023-08-12T08:19:15;17.20;99.90
37380;DHT22;23252;-33.992;18.480;2023-08-12T08:21:41;17.30;99.90
37380;DHT22;23252;-33.992;18.480;2023-08-12T08:24:08;17.30;99.90
37380;DHT22;23252;-33.992;18.480;2023-08-12T08:26:37;17.40;99.90
37380;DHT22;23252;-33.992;18.480;2023-08-12T08:29:04;17.50;99.90
37380;DHT22;23252;-33.992;18.480;2023-08-12T08:31:30;17.60;99.90
37380;DHT22;23252;-33.992;18.480;2023-08-12T08:33:57;17.60;99.90
37380;DHT22;23252;-33.992;18.480;2023-08-12T08:36:23;17.70;99.90
37380;DHT22;23252;-33.992;18.480;2023-08-12T08:38:50;17.60;99.90
37380;DHT22;23252;-33.992;18.480;2023-08-12T08:41:17;17.60;99.90
37380;DHT22;23252;-33.992;18.480;2023-08-12T08:43:44;17.60;99.90
37380;DHT22;23252;-33.992;18.480;2023-08-12T08:46:16;17.50;99.90
37380;DHT22;23252;-33.992;18.480;2023-08-12T08:48:47;17.60;99.90
37380;DHT22;23252;-33.992;18.480;2023-08-12T08:51:18;17.60;99.90
37380;DHT22;23252;-33.992;18.480;2023-08-12T08:53:46;17.60;99.90
37380;DHT22;23252;-33.992;18.480;2023-08-12T08:56:13;17.80;99.90
37380;DHT22;23252;-33.992;18.480;2023-08-12T08:58:40;17.80;99.90
37380;DHT22;23252;-33.992;18.480;2023-08-12T09:01:12;17.80;99.90
37380;DHT22;23252;-33.992;18.480;2023-08-12T09:03:41;17.70;99.90
37380;DHT22;23252;-33.992;18.480;2023-08-12T09:06:09;17.80;99.90
37380;DHT22;23252;-33.992;18.480;2023-08-12T09:08:36;17.90;99.90
37380;DHT22;23252;-33.992;18.480;2023-08-12T09:11:03;17.90;99.90
37380;DHT22;23252;-33.992;18.480;2023-08-12T09:13:30;18.00;99.90
37380;DHT22;23252;-33.992;18.480;2023-08-12T09:15:57;17.90;99.90
37380;DHT22;23252;-33.992;18.480;2023-08-12T09:18:26;17.60;99.90
37380;DHT22;23252;-33.992;18.480;2023-08-12T09:20:55;17.40;99.90
37380;DHT22;23252;-33.992;18.480;2023-08-12T09:23:22;17.30;99.90
37380;DHT22;23252;-33.992;18.480;2023-08-12T09:25:49;17.30;99.90
37380;DHT22;23252;-33.992;18.480;2023-08-12T09:28:16;17.30;99.90
37380;DHT22;23252;-33.992;18.480;2023-08-12T09:30:42;17.20;99.90
37380;DHT22;23252;-33.992;18.480;2023-08-12T09:33:10;17.10;99.90
37380;DHT22;23252;-33.992;18.480;2023-08-12T09:35:41;17.20;99.90
37380;DHT22;23252;-33.992;18.480;2023-08-12T09:38:14;17.20;99.90
37380;DHT22;23252;-33.992;18.480;2023-08-12T09:40:48;17.30;99.90
37380;DHT22;23252;-33.992;18.480;2023-08-12T09:43:15;17.30;99.90
37380;DHT22;23252;-33.992;18.480;2023-08-12T09:45:43;17.30;99.90
37380;DHT22;23252;-33.992;18.480;2023-08-12T09:48:10;17.30;99.90
37380;DHT22;23252;-33.992;18.480;2023-08-12T09:50:37;17.50;99.90
37380;DHT22;23252;-33.992;18.480;2023-08-12T09:53:04;17.60;99.90
37380;DHT22;23252;-33.992;18.480;2023-08-12T09:55:32;17.70;99.90
37380;DHT22;23252;-33.992;18.480;2023-08-12T09:58:02;17.80;99.90
37380;DHT22;23252;-33.992;18.480;2023-08-12T10:00:33;17.70;99.90
37380;DHT22;23252;-33.992;18.480;2023-08-12T10:03:01;17.80;99.90
37380;DHT22;23252;-33.992;18.480;2023-08-12T10:05:30;17.80;99.90
37380;DHT22;23252;-33.992;18.480;2023-08-12T10:07:58;17.90;99.90
37380;DHT22;23252;-33.992;18.480;2023-08-12T10:10:27;17.80;99.90
37380;DHT22;23252;-33.992;18.480;2023-08-12T10:12:55;17.80;99.90
37380;DHT22;23252;-33.992;18.480;2023-08-12T10:15:25;17.80;99.90
37380;DHT22;23252;-33.992;18.480;2023-08-12T10:17:52;17.80;99.90
37380;DHT22;23252;-33.992;18.480;2023-08-12T10:20:25;17.60;99.90
37380;DHT22;23252;-33.992;18.480;2023-08-12T10:22:55;17.60;99.90
37380;DHT22;23252;-33.992;18.480;2023-08-12T10:25:25;17.60;99.90
37380;DHT22;23252;-33.992;18.480;2023-08-12T10:27:55;17.50;99.90
37380;DHT22;23252;-33.992;18.480;2023-08-12T10:30:22;17.50;99.90
37380;DHT22;23252;-33.992;18.480;2023-08-12T10:32:52;17.60;99.90
37380;DHT22;23252;-33.992;18.480;2023-08-12T10:35:19;17.60;99.90
37380;DHT22;23252;-33.992;18.480;2023-08-12T10:37:49;17.60;99.90
37380;DHT22;23252;-33.992;18.480;2023-08-12T10:40:25;17.60;99.90
37380;DHT22;23252;-33.992;18.480;2023-08-12T10:42:52;17.90;99.90
37380;DHT22;23252;-33.992;18.480;2023-08-12T10:45:19;18.10;99.90
37380;DHT22;23252;-33.992;18.480;2023-08-12T10:50:27;18.30;99.90
37380;DHT22;23252;-33.992;18.480;2023-08-12T10:52:54;18.40;99.90
37380;DHT22;23252;-33.992;18.480;2023-08-12T10:55:22;18.60;99.90
37380;DHT22;23252;-33.992;18.480;2023-08-12T10:57:50;18.70;99.90
37380;DHT22;23252;-33.992;18.480;2023-08-12T11:00:26;18.70;99.90
37380;DHT22;23252;-33.992;18.480;2023-08-12T11:03:03;18.70;99.90
37380;DHT22;23252;-33.992;18.480;2023-08-12T11:05:38;18.80;99.90
37380;DHT22;23252;-33.992;18.480;2023-08-12T11:08:05;18.90;99.90
37380;DHT22;23252;-33.992;18.480;2023-08-12T11:10:33;19.10;99.90
37380;DHT22;23252;-33.992;18.480;2023-08-12T11:13:01;19.30;99.90
37380;DHT22;23252;-33.992;18.480;2023-08-12T11:18:18;19.30;99.90
37380;DHT22;23252;-33.992;18.480;2023-08-12T11:20:48;19.30;99.90
37380;DHT22;23252;-33.992;18.480;2023-08-12T11:23:16;19.30;99.90
37380;DHT22;23252;-33.992;18.480;2023-08-12T11:25:46;19.40;99.90
37380;DHT22;23252;-33.992;18.480;2023-08-12T11:28:18;19.50;99.90
37380;DHT22;23252;-33.992;18.480;2023-08-12T11:30:48;19.60;99.90
37380;DHT22;23252;-33.992;18.480;2023-08-12T11:33:16;19.70;99.90
37380;DHT22;23252;-33.992;18.480;2023-08-12T11:35:47;19.70;99.90
37380;DHT22;23252;-33.992;18.480;2023-08-12T11:38:15;19.80;99.90
37380;DHT22;23252;-33.992;18.480;2023-08-12T11:40:43;19.80;99.90
37380;DHT22;23252;-33.992;18.480;2023-08-12T11:43:09;19.90;99.90
37380;DHT22;23252;-33.992;18.480;2023-08-12T11:45:36;20.00;99.90
37380;DHT22;23252;-33.992;18.480;2023-08-12T11:48:04;20.20;99.90
37380;DHT22;23252;-33.992;18.480;2023-08-12T11:50:31;20.00;99.90
37380;DHT22;23252;-33.992;18.480;2023-08-12T11:52:58;20.00;99.90
37380;DHT22;23252;-33.992;18.480;2023-08-12T11:55:25;20.20;99.90
37380;DHT22;23252;-33.992;18.480;2023-08-12T11:57:52;20.30;99.90
37380;DHT22;23252;-33.992;18.480;2023-08-12T12:00:19;20.60;99.90
37380;DHT22;23252;-33.992;18.480;2023-08-12T12:02:51;21.00;99.90
37380;DHT22;23252;-33.992;18.480;2023-08-12T12:05:21;21.40;99.90
37380;DHT22;23252;-33.992;18.480;2023-08-12T12:07:49;21.70;99.90
37380;DHT22;23252;-33.992;18.480;2023-08-12T12:10:27;21.90;99.90
37380;DHT22;23252;-33.992;18.480;2023-08-12T12:12:59;22.00;99.90
37380;DHT22;23252;-33.992;18.480;2023-08-12T12:15:26;21.70;99.90
37380;DHT22;23252;-33.992;18.480;2023-08-12T12:17:55;21.70;99.90
37380;DHT22;23252;-33.992;18.480;2023-08-12T12:20:22;21.60;99.90
37380;DHT22;23252;-33.992;18.480;2023-08-12T12:22:49;21.60;99.90
37380;DHT22;23252;-33.992;18.480;2023-08-12T12:25:17;21.50;99.90
37380;DHT22;23252;-33.992;18.480;2023-08-12T12:27:47;21.30;99.90
37380;DHT22;23252;-33.992;18.480;2023-08-12T12:30:13;21.30;99.90
37380;DHT22;23252;-33.992;18.480;2023-08-12T12:32:40;21.20;99.90
37380;DHT22;23252;-33.992;18.480;2023-08-12T12:35:07;21.20;99.90
37380;DHT22;23252;-33.992;18.480;2023-08-12T12:37:35;21.30;99.90
37380;DHT22;23252;-33.992;18.480;2023-08-12T12:40:02;21.50;99.90
37380;DHT22;23252;-33.992;18.480;2023-08-12T12:42:30;21.70;99.90
37380;DHT22;23252;-33.992;18.480;2023-08-12T12:44:56;21.90;99.90
37380;DHT22;23252;-33.992;18.480;2023-08-12T12:47:26;22.10;99.90
37380;DHT22;23252;-33.992;18.480;2023-08-12T12:49:53;22.10;99.90
37380;DHT22;23252;-33.992;18.480;2023-08-12T12:52:20;22.20;99.90
37380;DHT22;23252;-33.992;18.480;2023-08-12T12:54:46;22.30;99.90
37380;DHT22;23252;-33.992;18.480;2023-08-12T12:57:16;22.40;99.90
37380;DHT22;23252;-33.992;18.480;2023-08-12T12:59:43;22.30;99.90
37380;DHT22;23252;-33.992;18.480;2023-08-12T13:02:12;22.30;99.90
37380;DHT22;23252;-33.992;18.480;2023-08-12T13:04:42;22.30;99.90
37380;DHT22;23252;-33.992;18.480;2023-08-12T13:07:10;22.30;99.90
37380;DHT22;23252;-33.992;18.480;2023-08-12T13:09:37;22.10;99.90
37380;DHT22;23252;-33.992;18.480;2023-08-12T13:12:04;21.50;99.90
37380;DHT22;23252;-33.992;18.480;2023-08-12T13:14:30;20.90;99.90
37380;DHT22;23252;-33.992;18.480;2023-08-12T13:17:00;20.40;99.90
37380;DHT22;23252;-33.992;18.480;2023-08-12T13:19:26;20.00;99.90
37380;DHT22;23252;-33.992;18.480;2023-08-12T13:21:53;19.80;99.90
37380;DHT22;23252;-33.992;18.480;2023-08-12T13:24:20;19.80;99.90
37380;DHT22;23252;-33.992;18.480;2023-08-12T13:26:49;19.90;99.90
37380;DHT22;23252;-33.992;18.480;2023-08-12T13:29:18;19.90;99.90
37380;DHT22;23252;-33.992;18.480;2023-08-12T13:31:45;20.00;99.90
37380;DHT22;23252;-33.992;18.480;2023-08-12T13:34:12;20.00;99.90
37380;DHT22;23252;-33.992;18.480;2023-08-12T13:36:39;19.90;99.90
37380;DHT22;23252;-33.992;18.480;2023-08-12T13:39:05;19.80;99.90
37380;DHT22;23252;-33.992;18.480;2023-08-12T13:41:32;19.50;99.90
37380;DHT22;23252;-33.992;18.480;2023-08-12T13:43:59;19.20;99.90
37380;DHT22;23252;-33.992;18.480;2023-08-12T13:46:25;19.00;99.90
37380;DHT22;23252;-33.992;18.480;2023-08-12T13:48:53;18.80;99.90
37380;DHT22;23252;-33.992;18.480;2023-08-12T13:51:20;18.70;99.90
37380;DHT22;23252;-33.992;18.480;2023-08-12T13:53:46;18.60;99.90
37380;DHT22;23252;-33.992;18.480;2023-08-12T13:56:13;18.60;99.90
37380;DHT22;23252;-33.992;18.480;2023-08-12T13:58:43;18.70;99.90
37380;DHT22;23252;-33.992;18.480;2023-08-12T16:14:22;15.60;99.90
37380;DHT22;23252;-33.992;18.480;2023-08-12T16:16:49;15.50;99.90
37380;DHT22;23252;-33.992;18.480;2023-08-12T16:19:17;15.50;99.90
37380;DHT22;23252;-33.992;18.480;2023-08-12T16:21:44;15.50;99.90
37380;DHT22;23252;-33.992;18.480;2023-08-12T16:24:10;15.50;99.90
37380;DHT22;23252;-33.992;18.480;2023-08-12T16:26:37;15.40;99.90
37380;DHT22;23252;-33.992;18.480;2023-08-12T16:29:04;15.40;99.90
37380;DHT22;23252;-33.992;18.480;2023-08-12T16:31:31;15.30;99.90
37380;DHT22;23252;-33.992;18.480;2023-08-12T16:33:58;15.20;99.90
37380;DHT22;23252;-33.992;18.480;2023-08-12T16:36:24;15.30;99.90
37380;DHT22;23252;-33.992;18.480;2023-08-12T16:38:51;15.30;99.90
37380;DHT22;23252;-33.992;18.480;2023-08-12T16:41:18;15.20;99.90
37380;DHT22;23252;-33.992;18.480;2023-08-12T16:43:44;15.20;99.90
37380;DHT22;23252;-33.992;18.480;2023-08-12T16:46:11;15.20;99.90
37380;DHT22;23252;-33.992;18.480;2023-08-12T16:48:38;15.20;99.90
37380;DHT22;23252;-33.992;18.480;2023-08-12T16:51:05;15.10;99.90
37380;DHT22;23252;-33.992;18.480;2023-08-12T16:53:31;15.10;99.90
37380;DHT22;23252;-33.992;18.480;2023-08-12T16:55:58;15.20;99.90
37380;DHT22;23252;-33.992;18.480;2023-08-12T16:58:25;15.20;99.90
37380;DHT22;23252;-33.992;18.480;2023-08-12T17:00:51;15.20;99.90
37380;DHT22;23252;-33.992;18.480;2023-08-12T17:03:18;15.30;99.90
37380;DHT22;23252;-33.992;18.480;2023-08-12T17:05:46;15.40;99.90
37380;DHT22;23252;-33.992;18.480;2023-08-12T17:08:12;15.30;99.90
37380;DHT22;23252;-33.992;18.480;2023-08-12T17:10:39;15.30;99.90
37380;DHT22;23252;-33.992;18.480;2023-08-12T17:13:07;15.30;99.90
37380;DHT22;23252;-33.992;18.480;2023-08-12T17:15:34;15.30;99.90
37380;DHT22;23252;-33.992;18.480;2023-08-12T17:18:02;15.30;99.90
37380;DHT22;23252;-33.992;18.480;2023-08-12T17:20:29;15.30;99.90
37380;DHT22;23252;-33.992;18.480;2023-08-12T17:22:55;15.20;99.90
37380;DHT22;23252;-33.992;18.480;2023-08-12T17:25:22;15.30;99.90
37380;DHT22;23252;-33.992;18.480;2023-08-12T17:27:50;15.20;99.90
37380;DHT22;23252;-33.992;18.480;2023-08-12T17:30:18;15.20;99.90
37380;DHT22;23252;-33.992;18.480;2023-08-12T17:32:45;15.10;99.90
37380;DHT22;23252;-33.992;18.480;2023-08-12T17:35:12;15.20;99.90
37380;DHT22;23252;-33.992;18.480;2023-08-12T17:37:39;15.10;99.90
37380;DHT22;23252;-33.992;18.480;2023-08-12T17:40:07;15.10;99.90
37380;DHT22;23252;-33.992;18.480;2023-08-12T17:42:36;15.20;99.90
37380;DHT22;23252;-33.992;18.480;2023-08-12T17:45:03;15.20;99.90
37380;DHT22;23252;-33.992;18.480;2023-08-12T17:47:30;15.20;99.90
37380;DHT22;23252;-33.992;18.480;2023-08-12T17:49:57;15.30;99.90
37380;DHT22;23252;-33.992;18.480;2023-08-12T17:52:24;15.30;99.90
37380;DHT22;23252;-33.992;18.480;2023-08-12T17:54:51;15.30;99.90
37380;DHT22;23252;-33.992;18.480;2023-08-12T17:57:18;15.30;99.90
37380;DHT22;23252;-33.992;18.480;2023-08-12T17:59:44;15.20;99.90
37380;DHT22;23252;-33.992;18.480;2023-08-12T18:02:11;15.20;99.90
37380;DHT22;23252;-33.992;18.480;2023-08-12T18:04:38;15.20;99.90
37380;DHT22;23252;-33.992;18.480;2023-08-12T18:07:05;15.10;99.90
37380;DHT22;23252;-33.992;18.480;2023-08-12T18:09:32;15.10;99.90
37380;DHT22;23252;-33.992;18.480;2023-08-12T18:11:59;15.10;99.90
37380;DHT22;23252;-33.992;18.480;2023-08-12T18:14:27;15.10;99.90
37380;DHT22;23252;-33.992;18.480;2023-08-12T18:16:55;15.10;99.90
37380;DHT22;23252;-33.992;18.480;2023-08-12T18:19:21;15.10;99.90
37380;DHT22;23252;-33.992;18.480;2023-08-12T18:21:50;15.00;99.90
37380;DHT22;23252;-33.992;18.480;2023-08-12T18:24:17;15.00;99.90
37380;DHT22;23252;-33.992;18.480;2023-08-12T18:26:44;15.00;99.90
37380;DHT22;23252;-33.992;18.480;2023-08-12T18:29:11;14.90;99.90
37380;DHT22;23252;-33.992;18.480;2023-08-12T18:31:37;14.90;99.90
37380;DHT22;23252;-33.992;18.480;2023-08-12T18:34:05;14.90;99.90
37380;DHT22;23252;-33.992;18.480;2023-08-12T18:36:32;14.90;99.90
37380;DHT22;23252;-33.992;18.480;2023-08-12T18:38:59;14.80;99.90
37380;DHT22;23252;-33.992;18.480;2023-08-12T18:41:26;14.70;99.90
37380;DHT22;23252;-33.992;18.480;2023-08-12T18:43:52;14.80;99.90
37380;DHT22;23252;-33.992;18.480;2023-08-12T18:46:20;14.70;99.90
37380;DHT22;23252;-33.992;18.480;2023-08-12T18:48:47;14.70;99.90
37380;DHT22;23252;-33.992;18.480;2023-08-12T18:51:14;14.60;99.90
37380;DHT22;23252;-33.992;18.480;2023-08-12T18:53:42;14.60;99.90
37380;DHT22;23252;-33.992;18.480;2023-08-12T18:56:08;14.50;99.90
37380;DHT22;23252;-33.992;18.480;2023-08-12T18:58:35;14.50;99.90
37380;DHT22;23252;-33.992;18.480;2023-08-12T19:01:02;14.40;99.90
37380;DHT22;23252;-33.992;18.480;2023-08-12T19:03:29;14.40;99.90
37380;DHT22;23252;-33.992;18.480;2023-08-12T19:05:58;14.40;99.90
37380;DHT22;23252;-33.992;18.480;2023-08-12T19:08:25;14.40;99.90
37380;DHT22;23252;-33.992;18.480;2023-08-12T19:10:57;14.30;99.90
37380;DHT22;23252;-33.992;18.480;2023-08-12T19:13:25;14.30;99.90
37380;DHT22;23252;-33.992;18.480;2023-08-12T19:15:54;14.20;99.90
37380;DHT22;23252;-33.992;18.480;2023-08-12T19:18:24;14.20;99.90
37380;DHT22;23252;-33.992;18.480;2023-08-12T19:20:52;14.20;99.90
37380;DHT22;23252;-33.992;18.480;2023-08-12T19:23:19;14.30;99.90
37380;DHT22;23252;-33.992;18.480;2023-08-12T19:25:46;14.30;99.90